sensor_id;sensor_type;location;lat;lon;timestamp;P1;durP1;ratioP1;P2;durP2;ratioP2
49978;SDS011;35869;50.990;6.962;2022-08-19T00:02:58;12.38;;;10.25;;
49978;SDS011;35869;50.990;6.962;2022-08-19T00:07:59;11.55;;;10.13;;
49978;SDS011;35869;50.990;6.962;2022-08-19T00:12:59;10.17;;;9.20;;
49978;SDS011;35869;50.990;6.962;2022-08-19T00:17:59;12.02;;;10.60;;
49978;SDS011;35869;50.990;6.962;2022-08-19T00:23:00;10.82;;;9.77;;
49978;SDS011;35869;50.990;6.962;2022-08-19T00:28:00;11.30;;;10.07;;
49978;SDS011;35869;50.990;6.962;2022-08-19T00:33:00;10.40;;;9.25;;
49978;SDS011;35869;50.990;6.962;2022-08-19T00:38:00;11.70;;;9.18;;
49978;SDS011;35869;50.990;6.962;2022-08-19T00:43:01;12.10;;;10.13;;
49978;SDS011;35869;50.990;6.962;2022-08-19T00:48:07;10.85;;;9.70;;
49978;SDS011;35869;50.990;6.962;2022-08-19T00:53:09;11.90;;;9.68;;
49978;SDS011;35869;50.990;6.962;2022-08-19T00:58:15;10.90;;;9.68;;
49978;SDS011;35869;50.990;6.962;2022-08-19T01:03:19;11.77;;;9.13;;
49978;SDS011;35869;50.990;6.962;2022-08-19T01:08:20;10.82;;;9.73;;
49978;SDS011;35869;50.990;6.962;2022-08-19T01:13:29;11.05;;;9.88;;
49978;SDS011;35869;50.990;6.962;2022-08-19T01:18:35;12.43;;;10.00;;
49978;SDS011;35869;50.990;6.962;2022-08-19T01:23:38;10.63;;;9.05;;
49978;SDS011;35869;50.990;6.962;2022-08-19T01:28:39;10.82;;;9.82;;
49978;SDS011;35869;50.990;6.962;2022-08-19T01:33:39;12.40;;;10.52;;
49978;SDS011;35869;50.990;6.962;2022-08-19T01:38:41;12.07;;;10.27;;
49978;SDS011;35869;50.990;6.962;2022-08-19T01:43:43;12.48;;;11.23;;
49978;SDS011;35869;50.990;6.962;2022-08-19T01:48:44;16.27;;;11.23;;
49978;SDS011;35869;50.990;6.962;2022-08-19T01:53:49;11.52;;;10.27;;
49978;SDS011;35869;50.990;6.962;2022-08-19T01:58:54;12.65;;;10.55;;
49978;SDS011;35869;50.990;6.962;2022-08-19T02:03:58;13.18;;;11.77;;
49978;SDS011;35869;50.990;6.962;2022-08-19T02:08:59;14.77;;;11.90;;
49978;SDS011;35869;50.990;6.962;2022-08-19T02:14:00;16.48;;;12.70;;
49978;SDS011;35869;50.990;6.962;2022-08-19T02:19:02;16.73;;;13.38;;
49978;SDS011;35869;50.990;6.962;2022-08-19T02:24:03;14.68;;;12.65;;
49978;SDS011;35869;50.990;6.962;2022-08-19T02:29:03;14.68;;;13.10;;
49978;SDS011;35869;50.990;6.962;2022-08-19T02:34:04;15.13;;;12.65;;
49978;SDS011;35869;50.990;6.962;2022-08-19T02:39:04;15.57;;;13.27;;
49978;SDS011;35869;50.990;6.962;2022-08-19T02:44:04;18.45;;;15.45;;
49978;SDS011;35869;50.990;6.962;2022-08-19T02:49:05;16.88;;;15.20;;
49978;SDS011;35869;50.990;6.962;2022-08-19T02:54:08;18.10;;;15.88;;
49978;SDS011;35869;50.990;6.962;2022-08-19T02:59:09;19.35;;;16.33;;
49978;SDS011;35869;50.990;6.962;2022-08-19T03:04:11;17.33;;;15.30;;
49978;SDS011;35869;50.990;6.962;2022-08-19T03:09:13;17.67;;;15.00;;
49978;SDS011;35869;50.990;6.962;2022-08-19T03:14:14;17.27;;;15.48;;
49978;SDS011;35869;50.990;6.962;2022-08-19T03:19:18;21.33;;;17.47;;
49978;SDS011;35869;50.990;6.962;2022-08-19T03:24:19;20.17;;;17.70;;
49978;SDS011;35869;50.990;6.962;2022-08-19T03:29:20;23.60;;;19.37;;
49978;SDS011;35869;50.990;6.962;2022-08-19T03:34:22;23.23;;;19.13;;
49978;SDS011;35869;50.990;6.962;2022-08-19T03:39:24;23.40;;;17.42;;
49978;SDS011;35869;50.990;6.962;2022-08-19T03:44:25;19.75;;;16.98;;
49978;SDS011;35869;50.990;6.962;2022-08-19T03:49:26;22.30;;;18.83;;
49978;SDS011;35869;50.990;6.962;2022-08-19T03:54:28;22.75;;;19.20;;
49978;SDS011;35869;50.990;6.962;2022-08-19T03:59:30;22.38;;;19.48;;
49978;SDS011;35869;50.990;6.962;2022-08-19T04:04:32;24.15;;;19.00;;
49978;SDS011;35869;50.990;6.962;2022-08-19T04:09:33;23.13;;;18.70;;
49978;SDS011;35869;50.990;6.962;2022-08-19T04:14:34;23.25;;;19.15;;
49978;SDS011;35869;50.990;6.962;2022-08-19T04:19:35;23.92;;;21.20;;
49978;SDS011;35869;50.990;6.962;2022-08-19T04:24:36;30.35;;;24.35;;
49978;SDS011;35869;50.990;6.962;2022-08-19T04:29:36;34.70;;;26.53;;
49978;SDS011;35869;50.990;6.962;2022-08-19T04:34:36;28.80;;;24.30;;
49978;SDS011;35869;50.990;6.962;2022-08-19T04:39:37;31.15;;;25.55;;
49978;SDS011;35869;50.990;6.962;2022-08-19T04:44:38;32.30;;;26.85;;
49978;SDS011;35869;50.990;6.962;2022-08-19T04:49:38;31.80;;;27.43;;
49978;SDS011;35869;50.990;6.962;2022-08-19T04:54:38;37.70;;;29.17;;
49978;SDS011;35869;50.990;6.962;2022-08-19T04:59:39;35.77;;;31.00;;
49978;SDS011;35869;50.990;6.962;2022-08-19T05:04:39;33.70;;;28.17;;
49978;SDS011;35869;50.990;6.962;2022-08-19T05:09:39;33.72;;;28.40;;
49978;SDS011;35869;50.990;6.962;2022-08-19T05:14:40;33.47;;;28.23;;
49978;SDS011;35869;50.990;6.962;2022-08-19T05:19:40;35.27;;;27.87;;
49978;SDS011;35869;50.990;6.962;2022-08-19T05:24:41;35.90;;;28.58;;
49978;SDS011;35869;50.990;6.962;2022-08-19T05:29:42;41.95;;;30.10;;
49978;SDS011;35869;50.990;6.962;2022-08-19T05:34:42;36.87;;;29.37;;
49978;SDS011;35869;50.990;6.962;2022-08-19T05:39:42;44.03;;;31.00;;
49978;SDS011;35869;50.990;6.962;2022-08-19T05:44:43;41.83;;;30.63;;
49978;SDS011;35869;50.990;6.962;2022-08-19T05:49:43;44.35;;;33.08;;
49978;SDS011;35869;50.990;6.962;2022-08-19T05:54:43;40.27;;;30.80;;
49978;SDS011;35869;50.990;6.962;2022-08-19T05:59:44;42.20;;;32.67;;
49978;SDS011;35869;50.990;6.962;2022-08-19T06:04:44;51.97;;;35.20;;
49978;SDS011;35869;50.990;6.962;2022-08-19T06:09:44;44.43;;;34.17;;
49978;SDS011;35869;50.990;6.962;2022-08-19T06:14:44;48.90;;;36.07;;
49978;SDS011;35869;50.990;6.962;2022-08-19T06:19:45;45.63;;;35.13;;
49978;SDS011;35869;50.990;6.962;2022-08-19T06:24:45;39.90;;;30.25;;
49978;SDS011;35869;50.990;6.962;2022-08-19T06:29:45;47.13;;;34.17;;
49978;SDS011;35869;50.990;6.962;2022-08-19T06:34:46;41.83;;;30.25;;
49978;SDS011;35869;50.990;6.962;2022-08-19T06:39:47;39.75;;;30.67;;
49978;SDS011;35869;50.990;6.962;2022-08-19T06:44:47;41.53;;;30.38;;
49978;SDS011;35869;50.990;6.962;2022-08-19T06:49:48;46.17;;;31.50;;
49978;SDS011;35869;50.990;6.962;2022-08-19T06:54:48;39.97;;;30.07;;
49978;SDS011;35869;50.990;6.962;2022-08-19T06:59:48;37.95;;;30.08;;
49978;SDS011;35869;50.990;6.962;2022-08-19T07:04:49;41.90;;;30.57;;
49978;SDS011;35869;50.990;6.962;2022-08-19T07:09:49;42.10;;;31.10;;
49978;SDS011;35869;50.990;6.962;2022-08-19T07:14:50;34.58;;;27.10;;
49978;SDS011;35869;50.990;6.962;2022-08-19T07:19:50;37.05;;;28.15;;
49978;SDS011;35869;50.990;6.962;2022-08-19T07:24:51;35.43;;;25.80;;
49978;SDS011;35869;50.990;6.962;2022-08-19T07:29:54;30.85;;;24.02;;
49978;SDS011;35869;50.990;6.962;2022-08-19T07:34:55;36.53;;;25.52;;
49978;SDS011;35869;50.990;6.962;2022-08-19T07:39:55;36.05;;;24.63;;
49978;SDS011;35869;50.990;6.962;2022-08-19T07:44:56;31.87;;;24.77;;
49978;SDS011;35869;50.990;6.962;2022-08-19T07:49:56;31.42;;;24.83;;
49978;SDS011;35869;50.990;6.962;2022-08-19T07:54:57;36.75;;;26.02;;
49978;SDS011;35869;50.990;6.962;2022-08-19T07:59:57;34.33;;;26.58;;
49978;SDS011;35869;50.990;6.962;2022-08-19T08:04:58;40.00;;;27.67;;
49978;SDS011;35869;50.990;6.962;2022-08-19T08:09:58;37.47;;;29.42;;
49978;SDS011;35869;50.990;6.962;2022-08-19T08:15:00;38.88;;;29.42;;
49978;SDS011;35869;50.990;6.962;2022-08-19T08:20:03;41.42;;;30.27;;
49978;SDS011;35869;50.990;6.962;2022-08-19T08:25:12;43.47;;;29.63;;
49978;SDS011;35869;50.990;6.962;2022-08-19T08:30:19;48.45;;;33.90;;
49978;SDS011;35869;50.990;6.962;2022-08-19T08:35:22;40.05;;;31.15;;
49978;SDS011;35869;50.990;6.962;2022-08-19T08:45:27;47.22;;;32.00;;
49978;SDS011;35869;50.990;6.962;2022-08-19T08:55:30;47.55;;;30.65;;
49978;SDS011;35869;50.990;6.962;2022-08-19T09:00:36;45.63;;;31.33;;
49978;SDS011;35869;50.990;6.962;2022-08-19T09:05:43;44.90;;;31.48;;
49978;SDS011;35869;50.990;6.962;2022-08-19T09:10:51;42.78;;;32.00;;
49978;SDS011;35869;50.990;6.962;2022-08-19T09:15:58;41.47;;;29.02;;
49978;SDS011;35869;50.990;6.962;2022-08-19T09:21:02;42.38;;;28.23;;
49978;SDS011;35869;50.990;6.962;2022-08-19T09:26:06;37.45;;;28.58;;
49978;SDS011;35869;50.990;6.962;2022-08-19T09:31:11;35.22;;;27.58;;
49978;SDS011;35869;50.990;6.962;2022-08-19T09:36:17;36.90;;;25.58;;
49978;SDS011;35869;50.990;6.962;2022-08-19T09:41:21;32.47;;;24.05;;
49978;SDS011;35869;50.990;6.962;2022-08-19T09:46:24;36.35;;;23.83;;
49978;SDS011;35869;50.990;6.962;2022-08-19T09:51:27;32.10;;;22.05;;
49978;SDS011;35869;50.990;6.962;2022-08-19T09:56:28;28.75;;;21.85;;
49978;SDS011;35869;50.990;6.962;2022-08-19T10:01:30;23.13;;;17.20;;
49978;SDS011;35869;50.990;6.962;2022-08-19T10:06:31;23.27;;;16.50;;
49978;SDS011;35869;50.990;6.962;2022-08-19T10:11:32;19.52;;;15.60;;
49978;SDS011;35869;50.990;6.962;2022-08-19T10:16:35;21.67;;;11.85;;
49978;SDS011;35869;50.990;6.962;2022-08-19T10:21:36;15.40;;;12.38;;
49978;SDS011;35869;50.990;6.962;2022-08-19T10:26:38;18.23;;;11.93;;
49978;SDS011;35869;50.990;6.962;2022-08-19T10:31:39;17.42;;;12.85;;
49978;SDS011;35869;50.990;6.962;2022-08-19T10:36:39;18.08;;;13.57;;
49978;SDS011;35869;50.990;6.962;2022-08-19T10:41:40;17.00;;;11.57;;
49978;SDS011;35869;50.990;6.962;2022-08-19T10:46:41;13.00;;;11.70;;
49978;SDS011;35869;50.990;6.962;2022-08-19T10:51:43;17.02;;;15.00;;
49978;SDS011;35869;50.990;6.962;2022-08-19T10:56:44;19.33;;;14.15;;
49978;SDS011;35869;50.990;6.962;2022-08-19T11:01:44;17.57;;;11.97;;
49978;SDS011;35869;50.990;6.962;2022-08-19T11:06:46;18.75;;;14.60;;
49978;SDS011;35869;50.990;6.962;2022-08-19T11:11:48;16.38;;;14.68;;
49978;SDS011;35869;50.990;6.962;2022-08-19T11:16:49;16.02;;;13.23;;
49978;SDS011;35869;50.990;6.962;2022-08-19T11:21:50;15.43;;;13.73;;
49978;SDS011;35869;50.990;6.962;2022-08-19T11:26:53;13.30;;;10.88;;
49978;SDS011;35869;50.990;6.962;2022-08-19T11:31:54;15.77;;;14.05;;
49978;SDS011;35869;50.990;6.962;2022-08-19T11:36:55;13.23;;;11.60;;
49978;SDS011;35869;50.990;6.962;2022-08-19T11:41:57;15.90;;;11.90;;
49978;SDS011;35869;50.990;6.962;2022-08-19T11:46:58;14.18;;;12.50;;
49978;SDS011;35869;50.990;6.962;2022-08-19T11:56:58;12.25;;;11.05;;
49978;SDS011;35869;50.990;6.962;2022-08-19T12:06:59;12.70;;;11.27;;
49978;SDS011;35869;50.990;6.962;2022-08-19T12:11:59;12.30;;;10.13;;
49978;SDS011;35869;50.990;6.962;2022-08-19T12:17:00;10.70;;;9.00;;
49978;SDS011;35869;50.990;6.962;2022-08-19T12:22:00;11.65;;;10.00;;
49978;SDS011;35869;50.990;6.962;2022-08-19T12:27:01;9.52;;;8.52;;
49978;SDS011;35869;50.990;6.962;2022-08-19T12:37:02;10.38;;;7.70;;
49978;SDS011;35869;50.990;6.962;2022-08-19T12:42:04;9.77;;;8.15;;
49978;SDS011;35869;50.990;6.962;2022-08-19T12:47:05;10.77;;;8.32;;
49978;SDS011;35869;50.990;6.962;2022-08-19T12:52:06;9.75;;;7.45;;
49978;SDS011;35869;50.990;6.962;2022-08-19T12:57:08;12.50;;;9.52;;
49978;SDS011;35869;50.990;6.962;2022-08-19T13:02:09;12.13;;;8.00;;
49978;SDS011;35869;50.990;6.962;2022-08-19T13:07:10;9.93;;;7.38;;
49978;SDS011;35869;50.990;6.962;2022-08-19T13:12:10;9.55;;;8.55;;
49978;SDS011;35869;50.990;6.962;2022-08-19T13:17:10;8.43;;;7.30;;
49978;SDS011;35869;50.990;6.962;2022-08-19T13:22:10;8.85;;;7.22;;
49978;SDS011;35869;50.990;6.962;2022-08-19T13:27:11;9.38;;;7.28;;
49978;SDS011;35869;50.990;6.962;2022-08-19T13:32:11;11.33;;;8.33;;
49978;SDS011;35869;50.990;6.962;2022-08-19T13:37:11;11.18;;;8.07;;
49978;SDS011;35869;50.990;6.962;2022-08-19T13:42:12;9.38;;;6.43;;
49978;SDS011;35869;50.990;6.962;2022-08-19T13:47:12;7.90;;;6.43;;
49978;SDS011;35869;50.990;6.962;2022-08-19T13:52:13;7.32;;;5.97;;
49978;SDS011;35869;50.990;6.962;2022-08-19T13:57:13;12.70;;;5.90;;
49978;SDS011;35869;50.990;6.962;2022-08-19T14:02:13;7.75;;;5.85;;
49978;SDS011;35869;50.990;6.962;2022-08-19T14:07:14;6.78;;;5.22;;
49978;SDS011;35869;50.990;6.962;2022-08-19T14:12:14;6.32;;;5.30;;
49978;SDS011;35869;50.990;6.962;2022-08-19T14:17:18;6.15;;;4.60;;
49978;SDS011;35869;50.990;6.962;2022-08-19T14:22:19;7.18;;;4.97;;
49978;SDS011;35869;50.990;6.962;2022-08-19T14:27:19;9.13;;;5.80;;
49978;SDS011;35869;50.990;6.962;2022-08-19T14:32:19;5.38;;;4.63;;
49978;SDS011;35869;50.990;6.962;2022-08-19T14:37:20;8.75;;;5.05;;
49978;SDS011;35869;50.990;6.962;2022-08-19T14:42:20;6.35;;;4.00;;
49978;SDS011;35869;50.990;6.962;2022-08-19T14:47:21;6.33;;;4.10;;
49978;SDS011;35869;50.990;6.962;2022-08-19T14:52:21;8.60;;;5.07;;
49978;SDS011;35869;50.990;6.962;2022-08-19T14:57:21;7.67;;;4.40;;
49978;SDS011;35869;50.990;6.962;2022-08-19T15:02:21;8.85;;;3.80;;
49978;SDS011;35869;50.990;6.962;2022-08-19T15:07:22;6.73;;;3.33;;
49978;SDS011;35869;50.990;6.962;2022-08-19T15:12:22;6.38;;;3.60;;
49978;SDS011;35869;50.990;6.962;2022-08-19T15:17:22;5.27;;;3.67;;
49978;SDS011;35869;50.990;6.962;2022-08-19T15:22:23;5.50;;;3.53;;
49978;SDS011;35869;50.990;6.962;2022-08-19T15:27:23;3.75;;;3.13;;
49978;SDS011;35869;50.990;6.962;2022-08-19T15:32:23;6.93;;;3.22;;
49978;SDS011;35869;50.990;6.962;2022-08-19T15:37:24;5.18;;;2.83;;
49978;SDS011;35869;50.990;6.962;2022-08-19T15:42:24;5.20;;;2.80;;
49978;SDS011;35869;50.990;6.962;2022-08-19T15:47:24;6.47;;;2.65;;
49978;SDS011;35869;50.990;6.962;2022-08-19T15:52:24;6.10;;;2.72;;
49978;SDS011;35869;50.990;6.962;2022-08-19T16:02:26;4.50;;;2.78;;
49978;SDS011;35869;50.990;6.962;2022-08-19T16:07:26;4.35;;;2.75;;
49978;SDS011;35869;50.990;6.962;2022-08-19T16:12:27;3.03;;;2.70;;
49978;SDS011;35869;50.990;6.962;2022-08-19T16:22:29;5.28;;;2.80;;
49978;SDS011;35869;50.990;6.962;2022-08-19T16:27:33;10.88;;;2.35;;
49978;SDS011;35869;50.990;6.962;2022-08-19T16:32:34;8.73;;;2.78;;
49978;SDS011;35869;50.990;6.962;2022-08-19T16:37:34;6.18;;;2.45;;
49978;SDS011;35869;50.990;6.962;2022-08-19T16:47:35;2.80;;;2.40;;
49978;SDS011;35869;50.990;6.962;2022-08-19T16:52:35;3.00;;;2.70;;
49978;SDS011;35869;50.990;6.962;2022-08-19T16:57:36;5.43;;;2.50;;
49978;SDS011;35869;50.990;6.962;2022-08-19T17:07:36;2.43;;;1.90;;
49978;SDS011;35869;50.990;6.962;2022-08-19T17:17:37;4.93;;;2.50;;
49978;SDS011;35869;50.990;6.962;2022-08-19T17:22:37;5.60;;;2.53;;
49978;SDS011;35869;50.990;6.962;2022-08-19T17:27:37;5.05;;;2.40;;
49978;SDS011;35869;50.990;6.962;2022-08-19T17:37:38;6.13;;;2.73;;
49978;SDS011;35869;50.990;6.962;2022-08-19T17:42:38;3.30;;;2.20;;
49978;SDS011;35869;50.990;6.962;2022-08-19T17:52:38;3.50;;;2.20;;
49978;SDS011;35869;50.990;6.962;2022-08-19T17:57:39;3.70;;;2.28;;
49978;SDS011;35869;50.990;6.962;2022-08-19T18:02:46;2.70;;;2.13;;
49978;SDS011;35869;50.990;6.962;2022-08-19T18:07:49;3.47;;;2.00;;
49978;SDS011;35869;50.990;6.962;2022-08-19T18:12:49;2.47;;;1.83;;
49978;SDS011;35869;50.990;6.962;2022-08-19T18:17:49;3.00;;;2.07;;
49978;SDS011;35869;50.990;6.962;2022-08-19T18:22:50;2.88;;;2.13;;
49978;SDS011;35869;50.990;6.962;2022-08-19T18:27:51;2.57;;;2.00;;
49978;SDS011;35869;50.990;6.962;2022-08-19T18:32:53;3.13;;;1.80;;
49978;SDS011;35869;50.990;6.962;2022-08-19T18:37:54;3.57;;;2.07;;
49978;SDS011;35869;50.990;6.962;2022-08-19T18:42:56;4.45;;;2.00;;
49978;SDS011;35869;50.990;6.962;2022-08-19T18:47:56;3.25;;;1.67;;
49978;SDS011;35869;50.990;6.962;2022-08-19T18:52:57;2.20;;;1.80;;
49978;SDS011;35869;50.990;6.962;2022-08-19T18:57:57;2.40;;;1.73;;
49978;SDS011;35869;50.990;6.962;2022-08-19T19:02:57;2.65;;;1.80;;
49978;SDS011;35869;50.990;6.962;2022-08-19T19:07:57;4.65;;;2.17;;
49978;SDS011;35869;50.990;6.962;2022-08-19T19:12:58;3.33;;;1.77;;
49978;SDS011;35869;50.990;6.962;2022-08-19T19:17:58;3.92;;;1.70;;
49978;SDS011;35869;50.990;6.962;2022-08-19T19:22:58;3.03;;;1.70;;
49978;SDS011;35869;50.990;6.962;2022-08-19T19:27:59;3.28;;;1.45;;
49978;SDS011;35869;50.990;6.962;2022-08-19T19:32:59;2.03;;;1.77;;
49978;SDS011;35869;50.990;6.962;2022-08-19T19:37:59;3.17;;;1.65;;
49978;SDS011;35869;50.990;6.962;2022-08-19T19:43:00;2.70;;;1.88;;
49978;SDS011;35869;50.990;6.962;2022-08-19T19:48:00;3.28;;;1.80;;
49978;SDS011;35869;50.990;6.962;2022-08-19T19:53:00;4.28;;;2.00;;
49978;SDS011;35869;50.990;6.962;2022-08-19T19:58:01;6.43;;;2.20;;
49978;SDS011;35869;50.990;6.962;2022-08-19T20:03:02;2.88;;;1.80;;
49978;SDS011;35869;50.990;6.962;2022-08-19T20:08:03;4.07;;;1.65;;
49978;SDS011;35869;50.990;6.962;2022-08-19T20:13:03;2.45;;;1.90;;
49978;SDS011;35869;50.990;6.962;2022-08-19T20:18:04;3.45;;;1.80;;
49978;SDS011;35869;50.990;6.962;2022-08-19T20:23:05;2.75;;;1.80;;
49978;SDS011;35869;50.990;6.962;2022-08-19T20:28:05;3.13;;;1.50;;
49978;SDS011;35869;50.990;6.962;2022-08-19T20:33:05;2.03;;;1.83;;
49978;SDS011;35869;50.990;6.962;2022-08-19T20:38:06;3.03;;;1.27;;
49978;SDS011;35869;50.990;6.962;2022-08-19T20:43:07;1.77;;;1.13;;
49978;SDS011;35869;50.990;6.962;2022-08-19T20:48:09;1.83;;;0.93;;
49978;SDS011;35869;50.990;6.962;2022-08-19T20:53:11;1.43;;;0.93;;
49978;SDS011;35869;50.990;6.962;2022-08-19T20:58:14;1.50;;;1.05;;
49978;SDS011;35869;50.990;6.962;2022-08-19T21:03:18;1.98;;;1.60;;
49978;SDS011;35869;50.990;6.962;2022-08-19T21:08:20;2.67;;;1.90;;
49978;SDS011;35869;50.990;6.962;2022-08-19T21:13:22;1.83;;;1.40;;
49978;SDS011;35869;50.990;6.962;2022-08-19T21:18:23;2.35;;;1.90;;
49978;SDS011;35869;50.990;6.962;2022-08-19T21:23:25;4.20;;;1.58;;
49978;SDS011;35869;50.990;6.962;2022-08-19T21:28:26;2.65;;;1.70;;
49978;SDS011;35869;50.990;6.962;2022-08-19T21:33:27;2.95;;;1.70;;
49978;SDS011;35869;50.990;6.962;2022-08-19T21:38:28;1.77;;;1.63;;
49978;SDS011;35869;50.990;6.962;2022-08-19T21:43:28;1.48;;;1.35;;
49978;SDS011;35869;50.990;6.962;2022-08-19T21:48:28;2.40;;;1.70;;
49978;SDS011;35869;50.990;6.962;2022-08-19T21:53:28;3.97;;;1.88;;
49978;SDS011;35869;50.990;6.962;2022-08-19T21:58:29;5.13;;;1.80;;
49978;SDS011;35869;50.990;6.962;2022-08-19T22:03:29;2.13;;;1.77;;
49978;SDS011;35869;50.990;6.962;2022-08-19T22:08:29;2.45;;;1.52;;
49978;SDS011;35869;50.990;6.962;2022-08-19T22:13:30;2.63;;;1.60;;
49978;SDS011;35869;50.990;6.962;2022-08-19T22:18:34;2.72;;;2.10;;
49978;SDS011;35869;50.990;6.962;2022-08-19T22:23:34;4.00;;;2.17;;
49978;SDS011;35869;50.990;6.962;2022-08-19T22:28:34;6.50;;;2.60;;
49978;SDS011;35869;50.990;6.962;2022-08-19T22:33:35;3.00;;;1.80;;
49978;SDS011;35869;50.990;6.962;2022-08-19T22:38:35;2.15;;;1.88;;
49978;SDS011;35869;50.990;6.962;2022-08-19T22:43:36;2.97;;;2.30;;
49978;SDS011;35869;50.990;6.962;2022-08-19T22:48:36;3.57;;;2.50;;
49978;SDS011;35869;50.990;6.962;2022-08-19T22:53:37;3.05;;;2.75;;
49978;SDS011;35869;50.990;6.962;2022-08-19T22:58:40;3.95;;;2.42;;
49978;SDS011;35869;50.990;6.962;2022-08-19T23:03:41;4.65;;;2.72;;
49978;SDS011;35869;50.990;6.962;2022-08-19T23:08:41;5.10;;;3.50;;
49978;SDS011;35869;50.990;6.962;2022-08-19T23:13:42;3.30;;;2.95;;
49978;SDS011;35869;50.990;6.962;2022-08-19T23:18:42;7.47;;;3.42;;
49978;SDS011;35869;50.990;6.962;2022-08-19T23:23:43;5.47;;;3.10;;
49978;SDS011;35869;50.990;6.962;2022-08-19T23:28:43;3.90;;;2.97;;
49978;SDS011;35869;50.990;6.962;2022-08-19T23:33:43;4.57;;;2.97;;
49978;SDS011;35869;50.990;6.962;2022-08-19T23:38:44;5.75;;;3.50;;
49978;SDS011;35869;50.990;6.962;2022-08-19T23:43:46;3.63;;;2.60;;
49978;SDS011;35869;50.990;6.962;2022-08-19T23:48:47;5.57;;;3.03;;
49978;SDS011;35869;50.990;6.962;2022-08-19T23:53:47;5.97;;;3.60;;
49978;SDS011;35869;50.990;6.962;2022-08-19T23:58:47;5.43;;;3.20;;
